Latest Weather Observations for Narrabri

IDN60801

Issued at 2:05 pm EDT Monday 22 December 2014 (issued every 30 minutes, with the page automatically refreshed every 10 minutes)

About weather observations | Map of weather stations | Latest weather observations for NSW | Other Formats
Station Details ID: 054038 Name: NARRABRI AIRPORT AWS Lat: -30.32 Lon: 149.83 Height: 229.02 m
Data from the previous 72 hours. | See also: Recent months at Narrabri
Date/Time
EDT
Temp
°C
App
Temp
°C
Dew
Point
Rel
Hum
%
Delta-T
°C
Wind Press
QNH
hPa
Press
MSL
hPa
Rain
since 9 am
mm
Dir
 
Spd
km/h
Gust
km/h
Spd
kts
Gust
kts
22/02:00pm 34.9 31.5 11.3 24 14.0 N 20 33 11 18 1013.7 1012.5 0.0
22/01:30pm 33.8 30.8 12.7 27 12.8 N 20 35 11 19 1014.6 1013.4 0.0
22/01:00pm 34.0 31.1 12.9 28 12.8 NNW 20 32 11 17 1015.0 1013.8 0.0
22/12:30pm 32.1 28.9 11.8 29 12.0 N 20 32 11 17 1015.5 1014.3 0.0
22/12:00pm 32.7 29.3 13.8 31 11.6 N 24 39 13 21 1015.9 1014.7 0.0
22/11:30am 30.8 26.8 13.1 34 10.6 N 26 41 14 22 1016.4 1015.1 0.0
22/11:00am 30.4 27.4 14.9 39 9.6 N 24 37 13 20 1016.5 1015.2 0.0
22/10:30am 29.3 26.1 14.3 40 9.1 NNE 24 39 13 21 1016.9 1015.6 0.0
22/10:00am 29.9 26.8 15.6 42 8.9 NNE 26 37 14 20 1017.1 1015.8 0.0
22/09:30am 27.9 24.3 15.2 46 7.8 N 28 37 15 20 1017.3 1016.0 0.0
22/09:00am 27.5 23.6 15.5 48 7.4 NNE 30 43 16 23 1017.3 1016.0 0.0
22/08:30am 27.1 23.4 15.1 47 7.3 N 28 37 15 20 1017.1 1015.8 0.0
22/08:00am 26.2 23.3 15.0 50 6.8 NNE 24 32 13 17 1016.9 1015.6 0.0
22/07:30am 25.4 22.9 15.1 53 6.3 NNE 22 30 12 16 1016.5 1015.2 0.0
22/07:00am 24.9 22.4 15.2 54 5.9 NE 22 30 12 16 1015.7 1014.5 0.0
22/06:30am 23.7 22.2 15.2 59 5.1 NE 17 20 9 11 1015.5 1014.3 0.0
22/06:00am 23.4 21.5 15.2 60 4.9 NE 19 24 10 13 1015.2 1014.0 0.0
22/05:30am 23.5 21.1 15.3 60 5.0 NE 22 30 12 16 1014.9 1013.7 0.0
22/05:00am 23.8 21.1 15.6 60 5.0 NE 24 32 13 17 1014.5 1013.3 0.0
22/04:30am 24.0 20.9 15.5 59 5.2 NE 26 33 14 18 1014.5 1013.3 0.0
22/04:00am 24.2 22.3 15.7 59 5.2 NE 20 26 11 14 1014.6 1013.4 0.0
22/03:30am 24.6 21.9 15.5 57 5.5 NNE 24 35 13 19 1014.4 1013.2 0.0
22/03:00am 25.0 21.8 15.3 55 5.9 NE 26 35 14 19 1014.1 1012.9 0.0
22/02:30am 25.4 22.1 15.1 53 6.3 NNE 26 37 14 20 1014.2 1013.0 0.0
22/02:00am 26.0 21.5 14.8 50 6.8 NNE 32 39 17 21 1014.2 1013.0 0.0
22/01:30am 26.3 21.2 14.7 48 7.0 NNE 35 46 19 25 1014.1 1012.9 0.0
22/01:00am 26.7 21.5 14.5 47 7.4 NNE 35 48 19 26 1014.1 1012.9 0.0
22/12:30am 27.2 22.6 14.6 46 7.6 NE 32 41 17 22 1013.9 1012.7 0.0
22/12:00am 26.9 23.1 12.5 40 8.4 N 24 33 13 18 1013.8 1012.6 0.0
 
Date/Time
EDT
Temp
°C
App
Temp
°C
Dew
Point
Rel
Hum
%
Delta-T
°C
Wind Press
QNH
hPa
Press
MSL
hPa
Rain
since 9 am
mm
Dir
 
Spd
km/h
Gust
km/h
Spd
kts
Gust
kts
21/11:30pm 26.9 24.1 12.5 40 8.4 N 19 22 10 12 1013.8 1012.6 0.0
21/11:00pm 25.8 24.7 11.9 42 8.0 NNW 9 19 5 10 1013.7 1012.5 0.0
21/10:30pm 26.5 25.2 11.4 39 8.7 ENE 9 11 5 6 1013.3 1012.0 0.0
21/10:00pm 27.3 26.0 11.3 37 9.2 ENE 9 13 5 7 1013.0 1011.7 0.0
21/09:30pm 28.4 26.5 11.9 36 9.6 ENE 13 15 7 8 1012.9 1011.6 0.0
21/09:00pm 28.7 27.4 11.3 34 10.1 E 9 11 5 6 1012.9 1011.6 0.0
21/08:30pm 29.4 27.5 9.0 28 11.4 ENE 9 13 5 7 1012.7 1011.4 0.0
21/08:00pm 31.2 29.5 8.2 24 12.8 NNW 7 9 4 5 1011.9 1010.6 0.0
21/07:30pm 33.0 31.3 8.5 22 13.8 NNE 7 11 4 6 1011.4 1010.2 0.0
21/07:00pm 34.0 33.5 9.3 22 14.2 S 2 7 1 4 1011.2 1010.0 0.0
21/06:30pm 34.5 33.0 9.0 21 14.6 SSW 7 9 4 5 1011.2 1010.0 0.0
21/06:00pm 34.7 33.2 9.2 21 14.7 WNW 7 17 4 9 1011.2 1010.0 0.0
21/05:30pm 34.3 31.4 9.5 22 14.3 NNW 15 22 8 12 1011.4 1010.2 0.0
21/05:00pm 33.7 31.6 9.7 23 13.9 N 11 19 6 10 1011.8 1010.5 0.0
21/04:30pm 34.7 31.3 10.5 23 14.2 NNW 19 28 10 15 1012.2 1010.9 0.0
21/04:00pm 34.4 31.1 11.5 25 13.6 NNW 20 33 11 18 1012.6 1011.3 0.0
21/03:30pm 33.8 30.5 11.6 26 13.2 N 20 32 11 17 1013.2 1011.9 0.0
21/03:00pm 34.2 31.4 13.1 28 12.9 N 20 41 11 22 1013.5 1012.2 0.0
21/02:30pm 32.6 30.1 12.3 29 12.1 N 17 24 9 13 1013.9 1012.7 0.0
21/02:00pm 33.4 29.9 13.5 30 12.2 NNE 24 35 13 19 1014.1 1012.9 0.0
21/01:30pm 32.8 29.9 13.9 31 11.6 NNE 22 33 12 18 1014.7 1013.5 0.0
21/01:00pm 31.1 27.9 14.3 36 10.3 N 24 35 13 19 1015.3 1014.1 0.0
21/12:30pm 30.9 27.1 13.7 35 10.4 N 26 39 14 21 1015.8 1014.6 0.0
21/12:00pm 30.5 26.8 15.0 39 9.6 NNE 28 39 15 21 1016.0 1014.8 0.0
21/11:30am 30.4 26.7 14.9 39 9.6 N 28 41 15 22 1016.4 1015.1 0.0
21/11:19am 29.8 25.6 14.7 39 9.3 NNE 30 48 16 26 1016.3 1015.0 0.0
21/11:00am 28.8 24.2 14.6 42 8.7 NNE 32 46 17 25 1016.5 1015.2 0.0
21/10:43am 28.7 24.8 14.5 42 8.7 NNE 28 46 15 25 1016.7 1015.4 0.0
21/10:30am 28.9 24.9 15.1 43 8.5 N 30 43 16 23 1016.8 1015.5 0.0
21/10:13am 28.8 24.7 15.0 43 8.5 NNE 30 48 16 26 1016.6 1015.3 0.0
21/10:00am 29.0 25.2 14.8 42 8.7 N 28 41 15 22 1016.8 1015.5 0.0
21/09:30am 26.8 22.2 13.5 44 7.9 NNE 30 41 16 22 1017.0 1015.7 0.0
21/09:00am 26.9 23.8 14.6 46 7.4 NE 24 32 13 17 1017.1 1015.8 0.0
21/08:30am 25.7 22.6 14.5 50 6.7 NNE 24 33 13 18 1017.0 1015.7 0.0
21/08:00am 25.4 23.2 14.5 51 6.6 NE 19 37 10 20 1016.9 1015.6 0.0
21/07:30am 22.9 23.2 14.5 59 5.0 S 6 9 3 5 1016.5 1015.2 0.0
21/07:00am 20.9 21.1 14.3 66 3.9 S 6 9 3 5 1016.0 1014.8 0.0
21/06:30am 18.9 19.2 13.3 70 3.2 WSW 4 7 2 4 1015.6 1014.4 0.0
21/06:00am 17.8 17.2 11.8 68 3.3 WSW 6 7 3 4 1015.2 1014.0 0.0
21/05:30am 18.6 18.1 12.1 66 3.6 SW 6 9 3 5 1014.6 1013.4 0.0
21/05:00am 19.3 18.5 12.8 66 3.7 S 9 11 5 6 1014.2 1013.0 0.0
21/04:30am 19.4 18.1 12.4 64 4.0 SSE 11 13 6 7 1013.9 1012.7 0.0
21/04:00am 18.0 16.3 8.3 53 5.0 SSW 7 9 4 5 1013.6 1012.3 0.0
21/03:30am 19.4 17.8 8.7 50 5.6 S 7 11 4 6 1013.5 1012.2 0.0
21/03:00am 18.9 16.5 7.0 46 6.1 S 9 9 5 5 1013.4 1012.1 0.0
21/02:30am 18.9 17.0 5.0 40 6.8 N 4 9 2 5 1013.6 1012.3 0.0
21/02:00am 21.2 17.9 9.4 47 6.4 E 17 24 9 13 1013.4 1012.1 0.0
21/01:30am 22.6 19.7 12.3 52 5.9 SSE 19 26 10 14 1013.0 1011.7 0.0
21/01:00am 22.9 20.8 11.3 48 6.5 SSE 13 22 7 12 1013.4 1012.1 0.0
21/12:30am 22.8 20.9 10.6 46 6.8 SSE 11 15 6 8 1013.6 1012.3 0.0
21/12:00am 23.0 20.7 7.5 37 8.2 SE 9 15 5 8 1013.7 1012.5 0.0
 
Date/Time
EDT
Temp
°C
App
Temp
°C
Dew
Point
Rel
Hum
%
Delta-T
°C
Wind Press
QNH
hPa
Press
MSL
hPa
Rain
since 9 am
mm
Dir
 
Spd
km/h
Gust
km/h
Spd
kts
Gust
kts
20/11:30pm 23.6 20.4 3.0 26 10.0 SSE 9 15 5 8 1013.8 1012.6 0.0
20/11:00pm 23.0 18.9 2.5 26 9.8 E 13 17 7 9 1013.7 1012.5 0.0
20/10:30pm 22.5 20.7 0.9 24 10.0 CALM 0 0 0 0 1013.5 1012.2 0.0
20/10:00pm 24.9 21.9 1.1 21 11.3 NW 6 6 3 3 1013.3 1012.0 0.0
20/09:30pm 25.6 22.6 1.0 20 11.7 NNE 6 7 3 4 1012.9 1011.6 0.0
20/09:00pm 26.4 22.5 0.9 19 12.2 NW 11 15 6 8 1012.5 1011.2 0.0
20/08:30pm 27.3 23.7 0.9 18 12.7 NW 9 13 5 7 1012.2 1010.9 0.0
20/08:00pm 29.1 25.3 -1.1 14 14.2 NNW 9 11 5 6 1011.7 1010.4 0.0
20/07:30pm 31.9 27.7 -1.0 12 15.8 NW 11 17 6 9 1011.3 1010.1 0.0
20/07:00pm 32.7 28.4 -1.6 11 16.4 NNW 11 15 6 8 1011.0 1009.8 0.0
20/06:30pm 32.8 28.0 -2.8 10 16.7 N 13 19 7 10 1010.7 1009.5 0.0
20/06:00pm 34.0 30.0 -1.9 10 17.3 WNW 9 15 5 8 1010.6 1009.4 0.0
20/05:30pm 33.9 28.8 -2.0 10 17.2 W 15 22 8 12 1010.6 1009.4 0.0
20/05:00pm 33.4 28.8 -1.0 11 16.7 NW 13 22 7 12 1010.7 1009.5 0.0
20/04:30pm 33.6 29.8 -0.9 11 16.8 N 9 13 5 7 1011.2 1010.0 0.0
20/04:00pm 33.4 28.8 -1.0 11 16.7 WSW 13 26 7 14 1011.7 1010.4 0.0
20/03:30pm 32.9 27.1 -1.4 11 16.5 WSW 19 35 10 19 1012.0 1010.7 0.0
20/03:00pm 32.4 28.4 0.5 13 15.8 W 11 22 6 12 1012.4 1011.1 0.0
20/02:30pm 32.7 28.9 1.7 14 15.7 WNW 11 20 6 11 1012.7 1011.4 0.0
20/02:00pm 32.0 28.5 1.2 14 15.4 SW 9 24 5 13 1013.2 1011.9 0.0
20/01:30pm 30.8 25.8 1.2 15 14.7 W 17 30 9 16 1013.6 1012.3 0.0
20/01:00pm 30.6 27.1 3.6 18 13.9 WSW 11 20 6 11 1014.0 1012.8 0.0
20/12:30pm 31.2 27.0 1.5 15 14.8 WNW 13 26 7 14 1014.5 1013.3 0.0
20/12:00pm 29.9 26.2 4.5 20 13.2 SSW 13 24 7 13 1014.9 1013.7 0.0
20/11:30am 30.9 27.4 5.3 20 13.6 WNW 13 24 7 13 1015.3 1014.1 0.0
20/11:00am 29.7 27.2 8.2 26 11.9 WNW 11 20 6 11 1015.4 1014.2 0.0
20/10:30am 28.0 25.5 9.8 32 10.3 NNW 13 20 7 11 1015.4 1014.2 0.0
20/10:00am 26.0 24.2 9.4 35 9.2 W 9 15 5 8 1015.4 1014.2 0.0
20/09:30am 24.5 23.1 9.6 39 8.2 SW 7 13 4 7 1015.5 1014.3 0.0
20/09:00am 23.7 22.6 10.0 42 7.6 SE 6 9 3 5 1015.5 1014.3 0.0
20/08:30am 21.8 19.8 11.5 52 5.8 SSE 13 17 7 9 1015.5 1014.3 0.0
20/08:00am 20.2 17.6 11.9 59 4.7 SSE 17 22 9 12 1015.2 1014.0 0.0
20/07:30am 18.1 14.7 11.4 65 3.7 SSE 20 32 11 17 1014.8 1013.6 0.0
20/07:00am 16.9 13.1 11.2 69 3.1 SSE 22 32 12 17 1014.3 1013.1 0.0
20/06:30am 16.0 12.7 11.0 72 2.7 SSE 19 28 10 15 1014.0 1012.8 0.0
20/06:00am 16.0 12.1 10.7 71 2.8 SE 22 35 12 19 1013.8 1012.6 0.0
20/05:30am 16.3 11.3 10.8 70 3.0 SSE 28 35 15 19 1013.3 1012.0 0.0
20/05:00am 16.6 11.5 10.7 68 3.2 SSE 28 39 15 21 1013.3 1012.0 0.0
20/04:30am 17.1 12.4 10.7 66 3.5 SE 26 37 14 20 1013.0 1011.7 0.0
20/04:00am 17.5 12.7 10.4 63 3.8 SSE 26 37 14 20 1013.0 1011.7 0.0
20/03:30am 17.8 12.2 8.9 56 4.7 SE 28 37 15 20 1013.1 1011.8 0.0
20/03:00am 18.5 13.9 6.4 45 6.1 SE 20 28 11 15 1013.3 1012.0 0.0
20/02:30am 19.3 13.8 0.8 29 8.4 SE 19 24 10 13 1013.4 1012.1 0.0
20/02:00am 17.0 12.8 -1.1 29 7.7 SSE 11 19 6 10 1013.8 1012.6 0.0
20/01:30am 18.1 14.7 -1.7 26 8.4 SSE 6 9 3 5 1013.9 1012.7 0.0
20/01:00am 21.9 17.6 -1.4 21 10.3 SE 11 17 6 9 1014.1 1012.9 0.0
20/12:30am 18.2 14.8 -2.1 25 8.6 SSE 6 7 3 4 1014.4 1013.2 0.0
20/12:00am 20.9 16.6 -1.6 22 9.8 SSE 11 15 6 8 1014.5 1013.3 0.0
 
Date/Time
EDT
Temp
°C
App
Temp
°C
Dew
Point
Rel
Hum
%
Delta-T
°C
Wind Press
QNH
hPa
Press
MSL
hPa
Rain
since 9 am
mm
Dir
 
Spd
km/h
Gust
km/h
Spd
kts
Gust
kts
19/11:30pm 18.7 15.5 -0.7 27 8.5 SSE 6 7 3 4 1014.5 1013.3 0.0
19/11:00pm 21.0 17.8 -0.3 24 9.5 S 6 9 3 5 1014.4 1013.2 0.0
19/10:30pm 21.3 17.8 -1.3 22 10.0 S 7 7 4 4 1014.3 1013.1 0.0
19/10:00pm 23.1 19.3 -1.1 20 10.9 SSW 9 13 5 7 1013.9 1012.7 0.0
19/09:30pm 23.4 19.5 -1.5 19 11.1 S 9 11 5 6 1013.5 1012.2 0.0
19/09:00pm 24.8 20.6 -1.1 18 11.8 SSW 11 15 6 8 1013.1 1011.8 0.0
19/08:30pm 26.9 21.4 -1.9 15 13.1 SW 17 24 9 13 1012.6 1011.3 0.0
19/08:00pm 27.5 21.4 -2.3 14 13.6 WSW 20 28 11 15 1012.2 1010.9 0.0
19/07:30pm 29.3 22.7 -3.0 12 14.7 SW 22 30 12 16 1011.8 1010.5 0.0
19/07:00pm 30.3 23.2 -4.7 10 15.6 SW 24 33 13 18 1011.4 1010.2 0.0
19/06:30pm 30.8 22.9 -4.3 10 15.8 SW 28 41 15 22 1011.1 1009.9 0.0
19/06:00pm 31.8 23.5 -4.9 9 16.5 WSW 30 39 16 21 1010.7 1009.5 0.0
19/05:30pm 31.9 23.5 -6.4 8 16.8 SW 30 39 16 21 1010.5 1009.3 0.0
19/05:00pm 32.3 25.2 -4.6 9 16.8 SW 24 33 13 18 1010.4 1009.2 0.0
19/04:30pm 33.4 25.2 -3.7 9 17.2 WSW 30 43 16 23 1010.3 1009.1 0.0
19/04:00pm 32.4 24.1 -4.5 9 16.8 WSW 30 54 16 29 1010.6 1009.4 0.0
19/03:38pm 32.9 25.2 -2.7 10 16.7 WSW 28 46 15 25 1010.6 1009.4 0.0
19/03:30pm 32.5 25.0 -1.7 11 16.3 WSW 28 41 15 22 1010.7 1009.5 0.0
19/03:08pm 32.5 24.0 -3.0 10 16.6 WSW 32 50 17 27 1010.8 1009.6 0.0
19/03:00pm 33.0 23.6 -2.6 10 16.8 W 37 50 20 27 1011.0 1009.8 0.0
19/02:30pm 33.6 23.5 -2.2 10 17.1 WSW 41 54 22 29 1010.9 1009.7 0.0

Other Formats:

Comma delimited format used in spreadsheet applications
http://www.bom.gov.au/fwo/IDN60801/IDN60801.95734.axf

JavaScript Object Notation format (JSON) in row-major order
http://www.bom.gov.au/fwo/IDN60801/IDN60801.95734.json